Time;durP1;ratioP1;P1;durP2;ratioP2;P2;SDS_P1;SDS_P2;PMS_P1;PMS_P2;Temp;Humidity;BMP_temperature;BMP_pressure;BME280_temperature;BME280_humidity;BME280_pressure;Samples;Min_cycle;Max_cycle;Signal;HPM_P1;HPM_P2
2023/05/24 00:01:01;;;;;;;14.15;12.75;;;23.20;65.90;;;;;;4760591;55;21005;-36
2023/05/24 00:06:05;;;;;;;13.73;12.43;;;23.20;65.90;;;;;;4744988;54;21030;-33
2023/05/24 00:11:06;;;;;;;13.23;11.95;;;23.20;65.80;;;;;;4752744;55;21566;-33
2023/05/24 00:16:07;;;;;;;13.68;12.35;;;23.20;65.80;;;;;;4753114;55;21420;-34
2023/05/24 00:21:08;;;;;;;13.93;12.52;;;23.20;65.80;;;;;;4845893;55;21398;-34
2023/05/24 00:26:09;;;;;;;14.48;13.07;;;23.20;65.80;;;;;;5073309;55;21068;-37
2023/05/24 00:31:10;;;;;;;14.35;12.85;;;23.20;66.50;;;;;;4811767;54;21465;-36
2023/05/24 00:36:11;;;;;;;13.23;11.93;;;23.20;65.80;;;;;;4845958;55;21112;-34
2023/05/24 00:41:12;;;;;;;13.40;12.00;;;23.20;65.90;;;;;;4739376;59;21073;-38
2023/05/24 00:46:27;;;;;;;13.65;12.35;;;23.20;65.80;;;;;;4790588;55;21483;-33
2023/05/24 00:51:29;;;;;;;13.25;11.95;;;23.20;65.80;;;;;;4783979;55;21037;-32
2023/05/24 00:56:30;;;;;;;13.10;11.80;;;23.20;66.40;;;;;;4740365;55;20998;-31
2023/05/24 01:01:31;;;;;;;14.15;12.75;;;23.20;65.80;;;;;;4740180;59;21057;-32
2023/05/24 01:06:43;;;;;;;13.07;11.77;;;23.20;65.80;;;;;;4861476;55;21085;-31
2023/05/24 01:12:22;;;;;;;13.45;12.05;;;23.20;65.80;;;;;;4774288;55;21517;-33
2023/05/24 01:18:00;;;;;;;13.77;12.37;;;23.20;65.80;;;;;;4761182;55;21045;-32
2023/05/24 01:23:16;;;;;;;12.65;11.43;;;23.20;65.80;;;;;;4758444;55;21499;-33
2023/05/24 01:28:19;;;;;;;13.20;11.90;;;23.20;65.80;;;;;;4851768;55;20998;-38
2023/05/24 01:33:21;;;;;;;12.73;11.45;;;23.20;65.80;;;;;;4739911;59;21084;-33
2023/05/24 01:38:21;;;;;;;12.55;11.35;;;23.20;65.80;;;;;;4797770;55;21038;-33
2023/05/24 01:44:06;;;;;;;12.23;11.07;;;23.20;65.70;;;;;;4872604;55;21093;-37
2023/05/24 01:49:42;;;;;;;12.95;11.75;;;23.20;65.70;;;;;;4756632;55;21002;-39
2023/05/24 01:54:49;;;;;;;12.63;11.38;;;23.20;65.70;;;;;;4748058;55;21580;-37
2023/05/24 01:59:51;;;;;;;12.50;11.30;;;23.20;65.70;;;;;;4879570;55;21030;-33
2023/05/24 02:04:52;;;;;;;12.63;11.43;;;23.20;65.70;;;;;;4739685;57;21260;-33
2023/05/24 02:09:53;;;;;;;12.18;10.98;;;23.20;65.70;;;;;;4740779;59;21523;-33
2023/05/24 02:14:54;;;;;;;12.15;10.95;;;23.20;65.60;;;;;;4758807;55;21355;-34
2023/05/24 02:19:55;;;;;;;12.43;11.23;;;23.20;65.70;;;;;;4745359;55;20997;-33
2023/05/24 02:24:56;;;;;;;12.43;11.23;;;23.20;65.60;;;;;;4754824;55;20998;-33
2023/05/24 02:29:57;;;;;;;12.15;11.00;;;23.20;65.60;;;;;;4789995;55;21488;-33
2023/05/24 02:34:58;;;;;;;12.30;11.00;;;23.20;65.70;;;;;;4763368;55;21081;-32
2023/05/24 02:40:00;;;;;;;12.25;11.12;;;23.20;65.60;;;;;;4866756;55;21563;-34
2023/05/24 02:45:01;;;;;;;12.48;11.27;;;23.20;65.60;;;;;;4824938;55;21464;-36
2023/05/24 02:50:02;;;;;;;11.93;10.73;;;23.20;65.60;;;;;;4801075;55;21061;-37
2023/05/24 02:55:05;;;;;;;11.85;10.65;;;23.20;65.60;;;;;;4864407;55;21077;-34
2023/05/24 03:00:10;;;;;;;11.65;10.55;;;23.20;65.60;;;;;;4740168;59;21483;-32
2023/05/24 03:05:10;;;;;;;12.35;11.15;;;23.20;65.70;;;;;;4790949;55;21090;-34
2023/05/24 03:10:11;;;;;;;11.20;10.13;;;23.20;65.60;;;;;;4792958;55;21076;-33
2023/05/24 03:15:12;;;;;;;11.90;10.75;;;23.20;65.60;;;;;;4739603;59;21114;-32
2023/05/24 03:20:14;;;;;;;12.15;10.95;;;23.20;65.70;;;;;;4755137;55;21096;-33
2023/05/24 03:25:15;;;;;;;11.45;10.35;;;23.20;65.60;;;;;;4846933;55;21105;-32
2023/05/24 03:30:16;;;;;;;11.45;10.35;;;23.20;65.60;;;;;;4781475;55;21531;-36
2023/05/24 03:35:17;;;;;;;11.05;9.95;;;23.20;65.50;;;;;;4757332;55;21053;-34
2023/05/24 03:40:19;;;;;;;11.27;10.18;;;23.20;65.50;;;;;;5019827;54;21488;-39
2023/05/24 03:45:21;;;;;;;11.90;10.70;;;23.20;65.50;;;;;;4776919;55;21586;-36
2023/05/24 03:50:22;;;;;;;11.05;10.00;;;23.20;65.50;;;;;;4755469;55;21492;-36
2023/05/24 03:55:23;;;;;;;11.25;10.20;;;23.20;65.50;;;;;;4806028;55;21089;-35
2023/05/24 04:00:24;;;;;;;10.45;9.45;;;23.20;65.50;;;;;;4739984;59;21018;-34
2023/05/24 04:05:28;;;;;;;10.43;9.50;;;23.20;65.50;;;;;;4797687;55;21488;-33
2023/05/24 04:10:29;;;;;;;10.95;9.95;;;23.20;65.50;;;;;;4865234;55;21539;-37
2023/05/24 04:15:30;;;;;;;10.68;9.63;;;23.20;65.60;;;;;;4745171;55;20998;-38
2023/05/24 04:20:31;;;;;;;10.50;9.50;;;23.20;65.50;;;;;;4859138;55;21472;-37
2023/05/24 04:25:32;;;;;;;10.73;9.63;;;23.20;65.40;;;;;;4745143;55;21595;-36
2023/05/24 04:30:35;;;;;;;10.52;9.52;;;23.20;65.50;;;;;;4791454;55;21575;-34
2023/05/24 04:35:36;;;;;;;10.35;9.35;;;23.20;65.40;;;;;;4849309;55;21551;-35
2023/05/24 04:40:38;;;;;;;9.65;8.75;;;23.10;65.20;;;;;;4745301;55;21597;-34
2023/05/24 04:45:38;;;;;;;10.57;9.57;;;23.20;65.30;;;;;;4773935;55;21033;-34
2023/05/24 04:50:39;;;;;;;10.60;9.50;;;23.10;65.10;;;;;;4740167;59;21081;-38
2023/05/24 04:55:41;;;;;;;10.50;9.50;;;23.10;65.00;;;;;;4740423;59;21001;-34
2023/05/24 05:00:43;;;;;;;10.27;9.38;;;23.10;65.10;;;;;;4740688;55;21141;-37
2023/05/24 05:05:45;;;;;;;10.00;9.10;;;23.20;65.10;;;;;;4816850;55;21594;-36
2023/05/24 05:10:47;;;;;;;9.63;8.73;;;23.10;65.00;;;;;;4816337;55;22190;-37
2023/05/24 05:15:47;;;;;;;11.18;9.52;;;23.10;65.00;;;;;;4825752;55;21033;-32
2023/05/24 05:20:48;;;;;;;9.27;8.38;;;23.10;65.00;;;;;;4801916;55;21496;-32
2023/05/24 05:25:49;;;;;;;9.32;8.43;;;23.10;65.00;;;;;;4745107;55;21528;-38
2023/05/24 05:30:55;;;;;;;10.23;9.23;;;23.10;64.90;;;;;;4784746;55;21515;-34
2023/05/24 05:35:58;;;;;;;9.38;8.52;;;23.10;64.80;;;;;;4760163;55;21886;-32
2023/05/24 05:40:58;;;;;;;9.90;8.90;;;23.10;64.80;;;;;;4801234;55;21148;-37
2023/05/24 05:46:01;;;;;;;8.88;7.97;;;23.10;64.70;;;;;;4756041;55;21555;-36
2023/05/24 05:51:02;;;;;;;9.85;8.95;;;23.10;64.70;;;;;;4824355;55;21049;-36
2023/05/24 05:56:03;;;;;;;9.93;8.93;;;23.10;64.70;;;;;;4754659;55;21101;-35
2023/05/24 06:01:04;;;;;;;9.95;9.00;;;23.10;64.70;;;;;;4746685;55;21116;-34
2023/05/24 06:06:05;;;;;;;10.80;9.70;;;23.10;65.40;;;;;;4749793;55;21535;-34
2023/05/24 06:11:06;;;;;;;10.27;9.20;;;23.10;64.60;;;;;;4860671;55;21140;-35
2023/05/24 06:16:07;;;;;;;9.90;8.88;;;23.10;64.50;;;;;;4754293;55;21487;-32
2023/05/24 06:21:09;;;;;;;9.73;8.80;;;23.10;64.50;;;;;;4742762;55;21022;-33
2023/05/24 06:26:10;;;;;;;10.13;9.10;;;23.10;64.40;;;;;;4889720;55;21472;-36
2023/05/24 06:31:11;;;;;;;10.90;9.18;;;23.10;64.40;;;;;;4743770;55;21085;-32
2023/05/24 06:36:12;;;;;;;9.95;8.95;;;23.10;64.40;;;;;;4743262;55;21487;-33
2023/05/24 06:41:13;;;;;;;10.13;9.13;;;23.10;65.10;;;;;;4745562;55;21157;-32
2023/05/24 06:46:14;;;;;;;11.43;9.50;;;23.10;64.30;;;;;;4857725;55;21583;-32
2023/05/24 06:51:15;;;;;;;10.45;9.35;;;23.10;64.30;;;;;;4801541;55;21619;-34
2023/05/24 06:56:16;;;;;;;11.52;9.52;;;23.10;64.30;;;;;;4825863;55;21080;-36
2023/05/24 07:01:17;;;;;;;10.63;9.50;;;23.20;64.40;;;;;;4785016;55;21519;-33
2023/05/24 07:06:18;;;;;;;11.73;9.57;;;23.10;64.30;;;;;;4766441;55;21354;-33
2023/05/24 07:11:19;;;;;;;11.32;9.70;;;23.10;64.30;;;;;;4741219;55;21116;-33
2023/05/24 07:16:20;;;;;;;11.27;10.07;;;23.10;64.40;;;;;;4831084;55;22444;-34
2023/05/24 07:21:21;;;;;;;12.00;9.98;;;23.10;64.40;;;;;;4739025;59;20993;-35
2023/05/24 07:26:22;;;;;;;12.63;10.27;;;23.20;64.40;;;;;;4767526;55;21476;-34
2023/05/24 07:31:23;;;;;;;11.50;10.18;;;23.10;64.30;;;;;;4752976;55;22407;-31
2023/05/24 07:36:24;;;;;;;11.52;10.32;;;23.20;64.40;;;;;;4808944;55;20993;-38
2023/05/24 07:41:26;;;;;;;12.20;10.65;;;23.20;64.40;;;;;;4817638;54;21105;-39
2023/05/24 07:46:27;;;;;;;12.90;10.77;;;23.20;64.50;;;;;;4825466;55;21487;-35
2023/05/24 07:51:28;;;;;;;12.85;10.85;;;23.20;64.50;;;;;;4766130;55;21089;-35
2023/05/24 07:56:29;;;;;;;13.23;10.77;;;23.20;64.50;;;;;;4779083;54;21479;-35
2023/05/24 08:01:34;;;;;;;12.93;10.80;;;23.20;64.50;;;;;;4752655;55;21013;-32
2023/05/24 08:06:35;;;;;;;12.32;10.95;;;23.20;64.50;;;;;;4796062;55;21784;-34
2023/05/24 08:11:36;;;;;;;12.18;10.88;;;23.20;64.50;;;;;;4763853;55;21117;-33
2023/05/24 08:16:37;;;;;;;11.65;10.45;;;23.20;64.60;;;;;;4823183;55;21013;-36
2023/05/24 08:21:38;;;;;;;10.95;9.93;;;23.20;64.50;;;;;;4743286;55;21361;-34
2023/05/24 08:26:40;;;;;;;11.93;10.70;;;23.20;64.60;;;;;;4773261;55;21018;-32
2023/05/24 08:31:41;;;;;;;12.57;10.80;;;23.20;64.60;;;;;;4747473;55;22205;-35
2023/05/24 08:36:42;;;;;;;14.35;11.07;;;23.20;64.60;;;;;;4739948;59;21014;-36
2023/05/24 08:41:43;;;;;;;12.52;11.07;;;23.20;64.70;;;;;;4740420;59;21483;-33
2023/05/24 08:46:45;;;;;;;11.85;10.60;;;23.20;64.70;;;;;;4821580;55;21496;-33
2023/05/24 08:51:46;;;;;;;12.27;10.90;;;23.20;64.70;;;;;;4772582;55;21029;-38
2023/05/24 08:56:48;;;;;;;12.02;10.75;;;23.20;64.70;;;;;;4842853;55;21061;-34
2023/05/24 09:01:53;;;;;;;11.77;10.57;;;23.20;64.70;;;;;;4742033;55;21077;-33
2023/05/24 09:06:55;;;;;;;13.70;11.07;;;23.20;64.70;;;;;;4739709;55;21499;-32
2023/05/24 09:11:58;;;;;;;11.43;10.25;;;23.20;64.80;;;;;;4742275;55;21382;-33
2023/05/24 09:16:59;;;;;;;12.40;11.10;;;23.20;64.80;;;;;;4740203;56;21731;-34
2023/05/24 09:22:00;;;;;;;11.60;10.10;;;23.20;64.80;;;;;;4809231;55;21026;-34
2023/05/24 09:27:05;;;;;;;12.25;10.43;;;23.20;64.80;;;;;;4767599;55;21491;-32
2023/05/24 09:32:07;;;;;;;14.20;11.07;;;23.20;64.80;;;;;;4788216;55;21076;-35
2023/05/24 09:37:20;;;;;;;12.05;10.85;;;23.20;64.80;;;;;;4831818;55;21681;-33
2023/05/24 09:42:23;;;;;;;11.48;10.27;;;23.20;64.80;;;;;;4807081;55;21492;-32
2023/05/24 09:47:31;;;;;;;10.85;9.73;;;23.30;64.90;;;;;;4847500;55;21519;-33
2023/05/24 09:52:38;;;;;;;13.48;10.90;;;23.20;64.80;;;;;;4740055;59;21037;-33
2023/05/24 09:57:39;;;;;;;12.07;10.87;;;23.20;64.80;;;;;;4740375;59;21061;-34
2023/05/24 10:02:41;;;;;;;12.10;10.38;;;23.30;64.90;;;;;;4739537;59;21335;-33
2023/05/24 10:07:42;;;;;;;12.48;11.15;;;23.30;64.90;;;;;;4740021;59;21021;-34
2023/05/24 10:12:45;;;;;;;12.45;11.15;;;23.20;64.80;;;;;;4739596;59;21492;-34
2023/05/24 10:17:46;;;;;;;13.90;11.45;;;23.20;64.90;;;;;;4828921;55;21487;-32
2023/05/24 10:23:00;;;;;;;13.15;11.12;;;23.20;64.90;;;;;;4763143;55;21013;-32
2023/05/24 10:28:06;;;;;;;12.98;11.18;;;23.20;64.90;;;;;;4739758;59;21638;-33
2023/05/24 10:33:10;;;;;;;11.88;10.68;;;23.20;64.90;;;;;;4744192;55;21057;-32
2023/05/24 10:38:11;;;;;;;12.75;10.60;;;23.30;65.00;;;;;;4819645;55;21511;-32
2023/05/24 10:43:12;;;;;;;12.07;10.88;;;23.30;65.00;;;;;;4740031;59;21010;-33
2023/05/24 10:48:35;;;;;;;11.57;10.48;;;23.30;65.00;;;;;;4772520;55;21034;-33
2023/05/24 10:53:39;;;;;;;14.45;11.05;;;23.30;65.50;;;;;;4753551;55;21515;-31
2023/05/24 10:59:04;;;;;;;16.48;11.93;;;23.40;65.60;;;;;;4797265;55;21069;-32
2023/05/24 11:04:10;;;;;;;13.85;11.57;;;23.50;65.50;;;;;;4737498;55;21591;-30
2023/05/24 11:09:11;;;;;;;12.98;11.63;;;23.50;65.40;;;;;;4738416;55;21528;-33
2023/05/24 11:14:13;;;;;;;11.93;10.63;;;23.50;65.80;;;;;;4770130;55;21041;-34
2023/05/24 11:19:17;;;;;;;13.40;11.40;;;23.60;66.10;;;;;;4744460;55;21069;-33
2023/05/24 11:24:20;;;;;;;12.18;10.93;;;23.60;66.20;;;;;;4738294;59;21174;-33
2023/05/24 11:29:24;;;;;;;12.52;11.23;;;23.60;66.30;;;;;;4737898;59;21586;-32
2023/05/24 11:34:26;;;;;;;13.52;12.13;;;23.60;66.40;;;;;;4770500;55;21033;-31
2023/05/24 11:39:35;;;;;;;13.82;11.57;;;23.70;66.50;;;;;;4742566;55;21582;-33
2023/05/24 11:44:36;;;;;;;12.80;11.50;;;23.70;66.70;;;;;;4744671;55;22296;-29
2023/05/24 11:49:38;;;;;;;16.02;12.15;;;23.70;66.50;;;;;;4792517;55;21999;-33
2023/05/24 11:54:39;;;;;;;17.50;11.88;;;23.70;66.80;;;;;;4753926;54;21041;-33
2023/05/24 11:59:40;;;;;;;14.52;12.37;;;23.70;66.60;;;;;;4746929;55;21650;-32
2023/05/24 12:04:41;;;;;;;14.75;12.95;;;23.70;66.60;;;;;;4737288;55;21061;-31
2023/05/24 12:09:42;;;;;;;14.60;12.98;;;23.80;66.30;;;;;;4738512;59;21535;-31
2023/05/24 12:14:43;;;;;;;15.35;13.20;;;23.80;66.60;;;;;;4744248;55;21072;-31
2023/05/24 12:19:47;;;;;;;17.80;14.30;;;23.80;66.90;;;;;;4738394;55;21125;-29
2023/05/24 12:24:51;;;;;;;15.02;13.15;;;23.80;67.00;;;;;;4787599;55;21094;-31
2023/05/24 12:29:51;;;;;;;14.45;12.85;;;23.80;67.30;;;;;;4738688;55;21522;-30
2023/05/24 12:34:52;;;;;;;15.13;13.52;;;23.80;67.30;;;;;;4755128;55;21006;-28
2023/05/24 12:39:53;;;;;;;15.88;13.50;;;23.80;67.50;;;;;;4770544;55;21109;-30
2023/05/24 12:44:54;;;;;;;14.70;12.70;;;23.80;67.60;;;;;;4750983;55;21101;-33
2023/05/24 12:49:55;;;;;;;15.50;13.80;;;23.80;68.20;;;;;;4762491;55;21954;-33
2023/05/24 12:54:56;;;;;;;15.48;13.65;;;23.90;68.10;;;;;;4747583;54;21499;-31
2023/05/24 12:59:57;;;;;;;14.73;13.23;;;23.90;68.20;;;;;;4737658;59;21452;-31
2023/05/24 13:04:58;;;;;;;15.07;12.65;;;23.90;68.30;;;;;;4747208;55;21081;-32
2023/05/24 13:09:59;;;;;;;15.88;13.65;;;23.90;68.50;;;;;;4737989;58;21057;-30
2023/05/24 13:15:00;;;;;;;16.15;13.70;;;23.90;68.80;;;;;;4750355;54;21159;-29
2023/05/24 13:20:05;;;;;;;16.05;12.93;;;23.90;69.10;;;;;;4770554;55;21012;-34
2023/05/24 13:25:08;;;;;;;14.13;12.70;;;23.90;69.00;;;;;;4737726;59;21503;-33
2023/05/24 13:30:11;;;;;;;13.85;12.43;;;23.90;69.00;;;;;;4764980;55;21061;-29
2023/05/24 13:35:12;;;;;;;14.55;13.05;;;23.90;69.10;;;;;;4744165;55;21591;-33
2023/05/24 13:40:13;;;;;;;15.52;13.38;;;23.90;69.00;;;;;;4766421;54;21061;-30
2023/05/24 13:45:13;;;;;;;15.48;13.68;;;24.00;69.00;;;;;;4755336;55;21017;-29
2023/05/24 13:50:14;;;;;;;15.13;13.05;;;24.00;69.10;;;;;;4762874;55;21140;-33
2023/05/24 13:55:16;;;;;;;15.20;13.23;;;24.00;68.90;;;;;;4783215;55;21210;-33
2023/05/24 14:00:17;;;;;;;15.65;12.73;;;24.00;69.10;;;;;;4789051;55;21528;-33
2023/05/24 14:05:18;;;;;;;13.90;12.25;;;24.00;69.10;;;;;;4768676;55;21086;-30
2023/05/24 14:10:20;;;;;;;17.50;13.32;;;24.00;69.00;;;;;;4798195;55;21116;-30
2023/05/24 14:15:21;;;;;;;15.05;12.80;;;24.00;68.90;;;;;;4750211;55;21471;-32
2023/05/24 14:20:22;;;;;;;14.80;13.30;;;23.90;69.40;;;;;;4737879;59;21116;-33
2023/05/24 14:25:22;;;;;;;14.32;12.80;;;23.90;69.90;;;;;;4760431;55;21077;-34
2023/05/24 14:30:24;;;;;;;17.33;13.40;;;23.90;69.70;;;;;;4771026;55;21061;-33
2023/05/24 14:35:25;;;;;;;16.52;13.27;;;23.90;69.70;;;;;;4752804;55;21116;-33
2023/05/24 14:40:26;;;;;;;15.35;12.68;;;23.80;69.70;;;;;;4783620;55;21101;-35
2023/05/24 14:45:27;;;;;;;16.70;13.77;;;23.80;69.70;;;;;;4738984;59;21018;-34
2023/05/24 14:50:27;;;;;;;15.25;13.65;;;23.80;69.70;;;;;;4819760;55;21017;-34
2023/05/24 14:55:30;;;;;;;15.07;13.13;;;23.70;69.60;;;;;;4740077;59;21077;-32
2023/05/24 15:00:31;;;;;;;15.48;13.13;;;23.70;69.60;;;;;;4769583;55;21077;-35
2023/05/24 15:05:32;;;;;;;14.65;13.10;;;23.70;69.50;;;;;;4775048;55;21536;-34
2023/05/24 15:10:33;;;;;;;14.93;13.30;;;23.70;69.40;;;;;;4860338;55;21527;-32
2023/05/24 15:15:34;;;;;;;14.15;12.55;;;23.70;69.40;;;;;;4803823;54;21062;-33
2023/05/24 15:20:35;;;;;;;15.23;13.38;;;23.70;69.40;;;;;;4806224;55;21494;-32
2023/05/24 15:25:37;;;;;;;16.40;13.45;;;23.70;69.30;;;;;;4809177;55;21039;-33
2023/05/24 15:30:37;;;;;;;15.68;14.07;;;23.70;69.30;;;;;;4740342;59;21013;-33
2023/05/24 15:35:40;;;;;;;15.77;13.88;;;23.70;69.20;;;;;;4878449;55;21464;-32
2023/05/24 15:40:41;;;;;;;14.25;12.85;;;23.70;69.10;;;;;;4859457;54;21515;-35
2023/05/24 15:45:42;;;;;;;15.25;13.62;;;23.70;69.10;;;;;;4759142;55;22492;-33
2023/05/24 15:50:43;;;;;;;14.40;12.90;;;23.60;69.00;;;;;;4853884;55;21940;-32
2023/05/24 15:55:45;;;;;;;16.35;13.50;;;23.60;69.00;;;;;;4835224;55;21511;-32
2023/05/24 16:00:46;;;;;;;15.10;13.30;;;23.60;68.90;;;;;;4739809;59;22040;-32
2023/05/24 16:05:48;;;;;;;14.77;13.27;;;23.60;68.90;;;;;;4772045;55;21461;-33
2023/05/24 16:10:49;;;;;;;14.27;12.88;;;23.60;68.80;;;;;;4873095;55;21578;-33
2023/05/24 16:15:50;;;;;;;13.98;12.65;;;23.60;68.80;;;;;;4875655;55;21382;-32
2023/05/24 16:20:54;;;;;;;14.85;13.15;;;23.60;68.80;;;;;;4842659;55;21898;-33
2023/05/24 16:25:54;;;;;;;14.00;12.50;;;23.60;68.80;;;;;;4835160;55;21017;-32
2023/05/24 16:30:56;;;;;;;16.48;13.80;;;23.60;68.70;;;;;;4767208;55;21050;-33
2023/05/24 16:35:59;;;;;;;14.32;12.82;;;23.60;68.70;;;;;;4808021;55;21584;-35
2023/05/24 16:41:00;;;;;;;14.27;12.77;;;23.60;68.70;;;;;;4843001;54;21484;-33
2023/05/24 16:46:01;;;;;;;13.95;12.55;;;23.60;68.70;;;;;;4744749;55;21065;-34
2023/05/24 16:51:02;;;;;;;14.80;13.23;;;23.60;68.60;;;;;;4793019;55;21076;-33
2023/05/24 16:56:03;;;;;;;13.35;12.02;;;23.60;68.90;;;;;;4746981;54;21487;-32
2023/05/24 17:01:03;;;;;;;14.07;12.68;;;23.60;68.60;;;;;;4772415;55;21033;-33
2023/05/24 17:06:05;;;;;;;14.20;12.70;;;23.60;68.50;;;;;;4828057;55;21461;-34
2023/05/24 17:11:06;;;;;;;14.35;12.95;;;23.60;68.50;;;;;;4744859;55;21081;-33
2023/05/24 17:16:06;;;;;;;13.43;12.10;;;23.60;68.50;;;;;;4755337;55;21576;-33
2023/05/24 17:21:07;;;;;;;13.95;12.55;;;23.60;68.50;;;;;;4805735;55;21174;-34
2023/05/24 17:26:13;;;;;;;14.52;13.05;;;23.60;68.50;;;;;;4777548;55;21046;-32
2023/05/24 17:31:15;;;;;;;14.80;12.85;;;23.60;68.40;;;;;;4873647;55;21468;-34
2023/05/24 17:36:15;;;;;;;14.20;12.73;;;23.60;68.40;;;;;;4744316;55;21929;-33
2023/05/24 17:41:16;;;;;;;13.95;12.55;;;23.60;68.40;;;;;;4764127;54;21053;-32
2023/05/24 17:46:17;;;;;;;14.50;12.98;;;23.60;68.40;;;;;;4871130;55;21539;-36
2023/05/24 17:51:23;;;;;;;13.32;12.02;;;23.60;68.30;;;;;;4989089;54;21073;-31
2023/05/24 17:56:24;;;;;;;14.18;12.70;;;23.60;68.40;;;;;;4739930;59;21594;-32
2023/05/24 18:01:26;;;;;;;14.10;12.70;;;23.60;68.30;;;;;;4889517;55;21009;-33
2023/05/24 18:06:27;;;;;;;13.70;12.40;;;23.60;68.20;;;;;;4805828;55;21551;-34
2023/05/24 18:11:28;;;;;;;14.00;12.50;;;23.60;68.20;;;;;;4780702;54;21077;-33
2023/05/24 18:16:30;;;;;;;13.20;11.90;;;23.60;68.30;;;;;;4747926;55;21563;-32
2023/05/24 18:21:31;;;;;;;13.23;11.82;;;23.60;68.30;;;;;;4744984;55;21510;-37
2023/05/24 18:26:32;;;;;;;13.95;12.25;;;23.60;68.30;;;;;;4785379;55;21488;-37
2023/05/24 18:31:32;;;;;;;13.88;12.45;;;23.60;68.30;;;;;;4744595;55;20994;-34
2023/05/24 18:36:33;;;;;;;13.75;12.25;;;23.60;68.20;;;;;;4870714;54;22409;-33
2023/05/24 18:41:34;;;;;;;13.50;12.13;;;23.60;68.90;;;;;;4783568;55;21054;-33
2023/05/24 18:46:35;;;;;;;13.52;12.20;;;23.60;68.20;;;;;;4739335;59;21455;-33
2023/05/24 18:51:36;;;;;;;14.00;12.50;;;23.60;68.20;;;;;;4762937;55;21033;-34
2023/05/24 18:56:37;;;;;;;12.63;11.32;;;23.60;68.20;;;;;;4755223;55;21483;-34
2023/05/24 19:01:38;;;;;;;14.10;12.60;;;23.60;68.20;;;;;;4838257;55;21087;-34
2023/05/24 19:06:39;;;;;;;13.80;12.43;;;23.60;68.20;;;;;;4918838;55;21519;-34
2023/05/24 19:11:42;;;;;;;13.75;12.35;;;23.60;68.10;;;;;;4881805;55;21014;-34
2023/05/24 19:16:45;;;;;;;13.43;12.13;;;23.60;68.20;;;;;;4809524;55;21677;-32
2023/05/24 19:21:46;;;;;;;14.50;13.00;;;23.60;68.10;;;;;;4793874;55;21199;-33
2023/05/24 19:26:47;;;;;;;13.07;11.80;;;23.60;68.10;;;;;;4739642;59;21535;-36
2023/05/24 19:31:49;;;;;;;13.32;12.02;;;23.60;68.10;;;;;;4744872;55;21467;-33
2023/05/24 19:36:50;;;;;;;13.45;12.13;;;23.60;68.10;;;;;;4740689;55;21512;-33
2023/05/24 19:41:51;;;;;;;13.62;12.30;;;23.60;68.10;;;;;;5090591;55;21073;-31
2023/05/24 19:46:52;;;;;;;13.50;12.13;;;23.60;68.10;;;;;;4764978;55;21965;-32
2023/05/24 19:51:53;;;;;;;14.60;13.00;;;23.60;68.10;;;;;;4775633;55;21017;-32
2023/05/24 19:56:54;;;;;;;13.00;11.68;;;23.60;68.10;;;;;;4740235;59;21030;-32
2023/05/24 20:01:55;;;;;;;13.88;12.48;;;23.60;68.10;;;;;;4931531;55;21425;-32
2023/05/24 20:06:56;;;;;;;12.95;11.65;;;23.60;68.10;;;;;;4856698;55;21101;-31
2023/05/24 20:11:57;;;;;;;13.10;11.80;;;23.60;68.10;;;;;;4807387;55;21548;-35
2023/05/24 20:16:58;;;;;;;12.45;11.25;;;23.60;68.00;;;;;;4754764;55;21379;-33
2023/05/24 20:21:59;;;;;;;13.00;11.70;;;23.60;68.00;;;;;;4785960;55;21029;-33
2023/05/24 20:27:01;;;;;;;13.32;12.02;;;23.60;68.00;;;;;;4739540;59;21560;-32
2023/05/24 20:32:02;;;;;;;12.93;11.65;;;23.60;68.00;;;;;;4764476;55;21646;-33
2023/05/24 20:37:03;;;;;;;13.93;12.50;;;23.60;68.00;;;;;;4740199;59;21153;-32
2023/05/24 20:42:05;;;;;;;12.98;11.60;;;23.60;68.00;;;;;;4810875;55;21566;-32
2023/05/24 20:47:06;;;;;;;13.48;12.07;;;23.60;68.00;;;;;;4739455;59;21678;-37
2023/05/24 20:52:07;;;;;;;14.00;12.05;;;23.60;68.00;;;;;;4934348;55;21105;-35
2023/05/24 20:57:07;;;;;;;13.23;11.93;;;23.60;68.00;;;;;;4754784;55;21014;-33
2023/05/24 21:02:08;;;;;;;13.32;11.93;;;23.60;68.00;;;;;;4740613;59;21539;-34
2023/05/24 21:07:09;;;;;;;13.05;11.75;;;23.60;68.00;;;;;;4779186;55;21021;-34
2023/05/24 21:12:13;;;;;;;13.68;12.30;;;23.60;68.00;;;;;;4827157;55;21472;-38
2023/05/24 21:17:14;;;;;;;13.80;12.40;;;23.60;68.00;;;;;;4776311;55;21555;-33
2023/05/24 21:22:14;;;;;;;13.32;11.68;;;23.60;68.00;;;;;;4916960;55;21045;-33
2023/05/24 21:27:16;;;;;;;13.10;11.80;;;23.60;68.00;;;;;;4884836;55;21061;-32
2023/05/24 21:32:17;;;;;;;12.95;11.65;;;23.60;68.00;;;;;;4924645;55;21053;-32
2023/05/24 21:37:18;;;;;;;13.38;12.07;;;23.60;67.90;;;;;;4740344;59;21559;-33
2023/05/24 21:42:19;;;;;;;12.23;11.00;;;23.60;68.00;;;;;;4744819;55;21010;-34
2023/05/24 21:47:19;;;;;;;13.25;11.85;;;23.60;68.00;;;;;;4739397;59;21148;-33
2023/05/24 21:52:21;;;;;;;13.62;12.05;;;23.60;68.00;;;;;;4772205;54;21498;-35
2023/05/24 21:57:22;;;;;;;13.25;11.82;;;23.60;67.90;;;;;;4745499;55;21077;-34
2023/05/24 22:02:23;;;;;;;13.65;12.35;;;23.60;68.00;;;;;;4751773;55;21504;-38
2023/05/24 22:07:24;;;;;;;12.88;11.57;;;23.60;67.90;;;;;;4789405;55;21041;-36
2023/05/24 22:12:25;;;;;;;12.57;11.38;;;23.60;67.90;;;;;;4797835;55;21459;-36
2023/05/24 22:17:27;;;;;;;13.10;11.75;;;23.60;67.90;;;;;;4768612;54;21073;-32
2023/05/24 22:22:28;;;;;;;12.77;11.57;;;23.60;67.90;;;;;;4740505;59;21539;-33
2023/05/24 22:27:29;;;;;;;12.55;11.25;;;23.60;67.90;;;;;;4740013;55;21129;-38
2023/05/24 22:32:30;;;;;;;13.18;11.80;;;23.60;67.90;;;;;;4833663;55;21121;-37
2023/05/24 22:37:31;;;;;;;12.05;10.85;;;23.60;67.90;;;;;;4826478;55;21042;-33
2023/05/24 22:42:32;;;;;;;13.48;12.07;;;23.60;68.00;;;;;;4827181;55;21010;-36
2023/05/24 22:47:33;;;;;;;12.45;11.25;;;23.60;67.90;;;;;;4858965;55;21057;-35
2023/05/24 22:52:34;;;;;;;12.15;10.95;;;23.60;67.90;;;;;;4741297;55;21468;-33
2023/05/24 22:57:35;;;;;;;12.37;11.07;;;23.60;67.90;;;;;;4778418;55;21010;-32
2023/05/24 23:02:36;;;;;;;12.57;11.30;;;23.60;67.90;;;;;;4816595;55;21101;-33
2023/05/24 23:07:36;;;;;;;13.52;12.15;;;23.60;67.90;;;;;;4742385;55;21021;-32
2023/05/24 23:12:40;;;;;;;12.73;11.52;;;23.60;67.90;;;;;;4830183;55;21006;-35
2023/05/24 23:17:41;;;;;;;13.25;11.95;;;23.60;67.90;;;;;;4764960;55;21543;-34
2023/05/24 23:22:42;;;;;;;12.43;11.23;;;23.60;67.90;;;;;;4739507;58;21512;-33
2023/05/24 23:27:43;;;;;;;12.35;11.15;;;23.60;67.90;;;;;;4739034;59;21037;-33
2023/05/24 23:32:44;;;;;;;12.23;10.98;;;23.60;67.90;;;;;;4747226;54;21001;-33
2023/05/24 23:37:45;;;;;;;11.98;10.82;;;23.60;67.90;;;;;;4771658;55;21096;-32
2023/05/24 23:42:46;;;;;;;12.63;11.12;;;23.60;67.90;;;;;;4763746;55;21022;-32
2023/05/24 23:47:47;;;;;;;12.37;11.07;;;23.60;67.90;;;;;;4831584;55;21001;-34
2023/05/24 23:52:48;;;;;;;12.65;11.38;;;23.60;67.80;;;;;;4788729;55;21006;-33
2023/05/24 23:57:49;;;;;;;11.90;10.77;;;23.60;67.80;;;;;;4815123;54;21516;-35
